Terminal Aerodrome Forecast
Issued by NWS

Home | Current Version | Previous Version | Text Only | Print | Product List | Glossary On
Versions: 1 2 3 4 5 6 7 8 9 10 11 12 13
000
FTUS43 KLSX 250530
TAFSUS
TAF
KSUS 250530Z 2506/2606 18004KT P6SM SCT150 OVC250
     FM251500 20007KT P6SM VCTS BKN050CB
     FM251900 17014KT P6SM SCT040 BKN250=

USA.gov is the U.S. government's official web portal to all federal, state and local government web resources and services.